sensor_id;sensor_type;location;lat;lon;timestamp;P1;durP1;ratioP1;P2;durP2;ratioP2
61091;SDS011;46975;51.898;11.444;2022-11-15T00:00:33;28.02;;;14.68;;
61091;SDS011;46975;51.898;11.444;2022-11-15T00:02:59;34.92;;;15.90;;
61091;SDS011;46975;51.898;11.444;2022-11-15T00:05:24;26.10;;;15.20;;
61091;SDS011;46975;51.898;11.444;2022-11-15T00:07:50;25.98;;;13.88;;
61091;SDS011;46975;51.898;11.444;2022-11-15T00:10:16;21.77;;;14.07;;
61091;SDS011;46975;51.898;11.444;2022-11-15T00:12:41;27.38;;;14.98;;
61091;SDS011;46975;51.898;11.444;2022-11-15T00:15:07;26.02;;;14.02;;
61091;SDS011;46975;51.898;11.444;2022-11-15T00:17:33;24.60;;;13.55;;
61091;SDS011;46975;51.898;11.444;2022-11-15T00:19:59;27.10;;;14.13;;
61091;SDS011;46975;51.898;11.444;2022-11-15T00:22:24;26.05;;;12.93;;
61091;SDS011;46975;51.898;11.444;2022-11-15T00:24:55;21.65;;;12.50;;
61091;SDS011;46975;51.898;11.444;2022-11-15T00:27:21;29.45;;;14.30;;
61091;SDS011;46975;51.898;11.444;2022-11-15T00:29:47;27.23;;;13.65;;
61091;SDS011;46975;51.898;11.444;2022-11-15T00:32:12;24.95;;;13.52;;
61091;SDS011;46975;51.898;11.444;2022-11-15T00:34:38;23.23;;;12.93;;
61091;SDS011;46975;51.898;11.444;2022-11-15T00:37:03;23.98;;;12.95;;
61091;SDS011;46975;51.898;11.444;2022-11-15T00:39:30;24.38;;;11.63;;
61091;SDS011;46975;51.898;11.444;2022-11-15T00:41:56;20.20;;;11.63;;
61091;SDS011;46975;51.898;11.444;2022-11-15T00:44:21;24.67;;;14.52;;
61091;SDS011;46975;51.898;11.444;2022-11-15T00:46:47;24.50;;;14.15;;
61091;SDS011;46975;51.898;11.444;2022-11-15T00:49:13;27.20;;;13.50;;
61091;SDS011;46975;51.898;11.444;2022-11-15T00:51:38;21.98;;;11.63;;
61091;SDS011;46975;51.898;11.444;2022-11-15T00:54:04;21.00;;;12.27;;
61091;SDS011;46975;51.898;11.444;2022-11-15T00:56:30;26.33;;;14.10;;
61091;SDS011;46975;51.898;11.444;2022-11-15T00:58:55;24.88;;;13.27;;
61091;SDS011;46975;51.898;11.444;2022-11-15T01:01:21;24.17;;;12.63;;
61091;SDS011;46975;51.898;11.444;2022-11-15T01:03:47;23.13;;;12.45;;
61091;SDS011;46975;51.898;11.444;2022-11-15T01:06:13;26.30;;;12.93;;
61091;SDS011;46975;51.898;11.444;2022-11-15T01:08:39;23.13;;;12.35;;
61091;SDS011;46975;51.898;11.444;2022-11-15T01:11:06;23.83;;;11.88;;
61091;SDS011;46975;51.898;11.444;2022-11-15T01:13:34;23.30;;;12.95;;
61091;SDS011;46975;51.898;11.444;2022-11-15T01:16:10;25.75;;;13.07;;
61091;SDS011;46975;51.898;11.444;2022-11-15T01:18:38;21.45;;;12.45;;
61091;SDS011;46975;51.898;11.444;2022-11-15T01:21:08;23.70;;;12.43;;
61091;SDS011;46975;51.898;11.444;2022-11-15T01:23:36;26.83;;;14.13;;
61091;SDS011;46975;51.898;11.444;2022-11-15T01:26:02;25.08;;;13.57;;
61091;SDS011;46975;51.898;11.444;2022-11-15T01:28:30;21.80;;;11.82;;
61091;SDS011;46975;51.898;11.444;2022-11-15T01:31:00;24.83;;;13.05;;
61091;SDS011;46975;51.898;11.444;2022-11-15T01:33:27;22.60;;;12.07;;
61091;SDS011;46975;51.898;11.444;2022-11-15T01:35:53;24.48;;;12.98;;
61091;SDS011;46975;51.898;11.444;2022-11-15T01:38:19;21.90;;;11.63;;
61091;SDS011;46975;51.898;11.444;2022-11-15T01:40:45;24.88;;;11.60;;
61091;SDS011;46975;51.898;11.444;2022-11-15T01:45:55;24.60;;;12.57;;
61091;SDS011;46975;51.898;11.444;2022-11-15T01:48:26;23.13;;;12.52;;
61091;SDS011;46975;51.898;11.444;2022-11-15T01:50:58;23.50;;;12.65;;
61091;SDS011;46975;51.898;11.444;2022-11-15T01:53:26;22.73;;;12.93;;
61091;SDS011;46975;51.898;11.444;2022-11-15T01:55:53;24.02;;;11.32;;
61091;SDS011;46975;51.898;11.444;2022-11-15T01:58:19;21.95;;;12.23;;
61091;SDS011;46975;51.898;11.444;2022-11-15T02:00:45;20.17;;;11.40;;
61091;SDS011;46975;51.898;11.444;2022-11-15T02:03:12;22.33;;;11.30;;
61091;SDS011;46975;51.898;11.444;2022-11-15T02:05:38;28.02;;;14.25;;
61091;SDS011;46975;51.898;11.444;2022-11-15T02:08:06;22.63;;;12.85;;
61091;SDS011;46975;51.898;11.444;2022-11-15T02:10:32;22.90;;;11.82;;
61091;SDS011;46975;51.898;11.444;2022-11-15T02:12:57;24.63;;;12.18;;
61091;SDS011;46975;51.898;11.444;2022-11-15T02:15:26;26.38;;;12.32;;
61091;SDS011;46975;51.898;11.444;2022-11-15T02:25:57;24.67;;;11.35;;
61091;SDS011;46975;51.898;11.444;2022-11-15T02:34:05;18.77;;;10.63;;
61091;SDS011;46975;51.898;11.444;2022-11-15T02:42:21;18.75;;;11.10;;
61091;SDS011;46975;51.898;11.444;2022-11-15T02:45:11;19.98;;;11.13;;
61091;SDS011;46975;51.898;11.444;2022-11-15T02:47:46;20.15;;;11.38;;
61091;SDS011;46975;51.898;11.444;2022-11-15T02:53:29;17.15;;;10.23;;
61091;SDS011;46975;51.898;11.444;2022-11-15T02:55:55;17.77;;;10.35;;
61091;SDS011;46975;51.898;11.444;2022-11-15T03:03:57;19.63;;;10.35;;
61091;SDS011;46975;51.898;11.444;2022-11-15T03:09:25;19.17;;;11.43;;
61091;SDS011;46975;51.898;11.444;2022-11-15T03:12:21;26.90;;;11.25;;
61091;SDS011;46975;51.898;11.444;2022-11-15T03:15:12;18.38;;;9.75;;
61091;SDS011;46975;51.898;11.444;2022-11-15T03:18:07;17.38;;;10.15;;
61091;SDS011;46975;51.898;11.444;2022-11-15T03:20:47;22.08;;;11.32;;
61091;SDS011;46975;51.898;11.444;2022-11-15T03:23:14;18.75;;;10.48;;
61091;SDS011;46975;51.898;11.444;2022-11-15T03:25:44;17.13;;;9.75;;
61091;SDS011;46975;51.898;11.444;2022-11-15T03:28:16;21.33;;;11.10;;
61091;SDS011;46975;51.898;11.444;2022-11-15T03:30:47;20.70;;;10.10;;
61091;SDS011;46975;51.898;11.444;2022-11-15T03:33:14;18.52;;;9.35;;
61091;SDS011;46975;51.898;11.444;2022-11-15T03:35:42;19.20;;;10.13;;
61091;SDS011;46975;51.898;11.444;2022-11-15T03:38:23;18.92;;;9.95;;
61091;SDS011;46975;51.898;11.444;2022-11-15T03:41:04;19.33;;;10.35;;
61091;SDS011;46975;51.898;11.444;2022-11-15T03:46:13;16.63;;;8.80;;
61091;SDS011;46975;51.898;11.444;2022-11-15T03:49:04;20.08;;;9.10;;
61091;SDS011;46975;51.898;11.444;2022-11-15T03:51:34;18.23;;;8.95;;
61091;SDS011;46975;51.898;11.444;2022-11-15T03:54:02;19.17;;;9.95;;
61091;SDS011;46975;51.898;11.444;2022-11-15T03:56:28;20.75;;;11.30;;
61091;SDS011;46975;51.898;11.444;2022-11-15T03:58:54;21.40;;;10.15;;
61091;SDS011;46975;51.898;11.444;2022-11-15T04:01:20;19.92;;;10.38;;
61091;SDS011;46975;51.898;11.444;2022-11-15T04:03:45;19.67;;;10.25;;
61091;SDS011;46975;51.898;11.444;2022-11-15T04:06:11;17.33;;;9.73;;
61091;SDS011;46975;51.898;11.444;2022-11-15T04:08:36;19.27;;;10.77;;
61091;SDS011;46975;51.898;11.444;2022-11-15T04:11:02;18.52;;;10.57;;
61091;SDS011;46975;51.898;11.444;2022-11-15T04:13:28;19.83;;;9.77;;
61091;SDS011;46975;51.898;11.444;2022-11-15T04:15:53;21.42;;;10.48;;
61091;SDS011;46975;51.898;11.444;2022-11-15T04:18:19;20.27;;;10.70;;
61091;SDS011;46975;51.898;11.444;2022-11-15T04:20:45;21.52;;;10.07;;
61091;SDS011;46975;51.898;11.444;2022-11-15T04:23:29;20.92;;;10.70;;
61091;SDS011;46975;51.898;11.444;2022-11-15T04:26:17;16.90;;;8.98;;
61091;SDS011;46975;51.898;11.444;2022-11-15T04:28:45;19.05;;;10.30;;
61091;SDS011;46975;51.898;11.444;2022-11-15T04:31:29;17.85;;;10.10;;
61091;SDS011;46975;51.898;11.444;2022-11-15T04:33:55;20.73;;;10.95;;
61091;SDS011;46975;51.898;11.444;2022-11-15T04:36:21;21.70;;;10.98;;
61091;SDS011;46975;51.898;11.444;2022-11-15T04:39:06;20.75;;;10.80;;
61091;SDS011;46975;51.898;11.444;2022-11-15T04:41:32;20.17;;;9.75;;
61091;SDS011;46975;51.898;11.444;2022-11-15T04:43:57;14.85;;;9.60;;
61091;SDS011;46975;51.898;11.444;2022-11-15T04:46:23;14.63;;;7.22;;
61091;SDS011;46975;51.898;11.444;2022-11-15T04:48:50;14.48;;;7.88;;
61091;SDS011;46975;51.898;11.444;2022-11-15T04:51:16;15.15;;;8.57;;
61091;SDS011;46975;51.898;11.444;2022-11-15T04:53:41;13.68;;;7.78;;
61091;SDS011;46975;51.898;11.444;2022-11-15T04:56:07;15.43;;;8.35;;
61091;SDS011;46975;51.898;11.444;2022-11-15T04:58:33;16.60;;;9.00;;
61091;SDS011;46975;51.898;11.444;2022-11-15T05:01:05;16.83;;;8.48;;
61091;SDS011;46975;51.898;11.444;2022-11-15T05:03:32;16.45;;;8.73;;
61091;SDS011;46975;51.898;11.444;2022-11-15T05:06:17;13.48;;;7.95;;
61091;SDS011;46975;51.898;11.444;2022-11-15T05:08:42;15.57;;;8.00;;
61091;SDS011;46975;51.898;11.444;2022-11-15T05:11:08;15.60;;;7.53;;
61091;SDS011;46975;51.898;11.444;2022-11-15T05:13:33;12.90;;;7.72;;
61091;SDS011;46975;51.898;11.444;2022-11-15T05:15:59;16.48;;;8.32;;
61091;SDS011;46975;51.898;11.444;2022-11-15T05:18:25;18.58;;;8.82;;
61091;SDS011;46975;51.898;11.444;2022-11-15T05:20:50;16.13;;;9.00;;
61091;SDS011;46975;51.898;11.444;2022-11-15T05:23:16;15.35;;;7.85;;
61091;SDS011;46975;51.898;11.444;2022-11-15T05:25:42;16.15;;;8.65;;
61091;SDS011;46975;51.898;11.444;2022-11-15T05:28:07;13.43;;;8.43;;
61091;SDS011;46975;51.898;11.444;2022-11-15T05:30:33;13.13;;;7.40;;
61091;SDS011;46975;51.898;11.444;2022-11-15T05:32:59;13.50;;;7.60;;
61091;SDS011;46975;51.898;11.444;2022-11-15T05:35:27;16.13;;;7.45;;
61091;SDS011;46975;51.898;11.444;2022-11-15T05:37:59;13.05;;;7.95;;
61091;SDS011;46975;51.898;11.444;2022-11-15T05:40:25;13.85;;;7.25;;
61091;SDS011;46975;51.898;11.444;2022-11-15T05:42:51;14.30;;;7.75;;
61091;SDS011;46975;51.898;11.444;2022-11-15T05:45:17;14.38;;;7.30;;
61091;SDS011;46975;51.898;11.444;2022-11-15T05:47:43;14.88;;;8.63;;
61091;SDS011;46975;51.898;11.444;2022-11-15T05:50:11;14.30;;;7.53;;
61091;SDS011;46975;51.898;11.444;2022-11-15T05:52:39;14.43;;;8.70;;
61091;SDS011;46975;51.898;11.444;2022-11-15T05:55:05;13.20;;;7.97;;
61091;SDS011;46975;51.898;11.444;2022-11-15T05:57:32;14.60;;;8.13;;
61091;SDS011;46975;51.898;11.444;2022-11-15T05:59:58;12.82;;;7.28;;
61091;SDS011;46975;51.898;11.444;2022-11-15T06:02:23;15.05;;;7.95;;
61091;SDS011;46975;51.898;11.444;2022-11-15T06:04:49;11.63;;;7.40;;
61091;SDS011;46975;51.898;11.444;2022-11-15T06:07:15;14.25;;;7.43;;
61091;SDS011;46975;51.898;11.444;2022-11-15T06:09:40;14.82;;;7.38;;
61091;SDS011;46975;51.898;11.444;2022-11-15T06:12:06;13.35;;;7.80;;
61091;SDS011;46975;51.898;11.444;2022-11-15T06:14:32;11.77;;;7.68;;
61091;SDS011;46975;51.898;11.444;2022-11-15T06:16:57;12.82;;;7.55;;
61091;SDS011;46975;51.898;11.444;2022-11-15T06:19:23;13.90;;;7.95;;
61091;SDS011;46975;51.898;11.444;2022-11-15T06:21:48;15.65;;;8.00;;
61091;SDS011;46975;51.898;11.444;2022-11-15T06:24:14;15.45;;;8.52;;
61091;SDS011;46975;51.898;11.444;2022-11-15T06:26:40;15.55;;;9.00;;
61091;SDS011;46975;51.898;11.444;2022-11-15T06:29:05;18.40;;;9.18;;
61091;SDS011;46975;51.898;11.444;2022-11-15T06:31:31;12.38;;;8.40;;
61091;SDS011;46975;51.898;11.444;2022-11-15T06:33:58;12.32;;;6.85;;
61091;SDS011;46975;51.898;11.444;2022-11-15T06:36:23;15.80;;;8.82;;
61091;SDS011;46975;51.898;11.444;2022-11-15T06:38:49;17.05;;;9.30;;
61091;SDS011;46975;51.898;11.444;2022-11-15T06:41:14;15.88;;;9.00;;
61091;SDS011;46975;51.898;11.444;2022-11-15T06:43:41;15.75;;;8.43;;
61091;SDS011;46975;51.898;11.444;2022-11-15T06:46:07;18.95;;;8.45;;
61091;SDS011;46975;51.898;11.444;2022-11-15T06:48:34;15.05;;;8.07;;
61091;SDS011;46975;51.898;11.444;2022-11-15T06:51:01;17.02;;;8.90;;
61091;SDS011;46975;51.898;11.444;2022-11-15T06:53:29;16.27;;;8.18;;
61091;SDS011;46975;51.898;11.444;2022-11-15T06:55:59;17.33;;;8.48;;
61091;SDS011;46975;51.898;11.444;2022-11-15T06:58:25;20.30;;;9.02;;
61091;SDS011;46975;51.898;11.444;2022-11-15T07:00:51;16.55;;;9.40;;
61091;SDS011;46975;51.898;11.444;2022-11-15T07:03:16;17.25;;;9.60;;
61091;SDS011;46975;51.898;11.444;2022-11-15T07:05:49;21.58;;;10.80;;
61091;SDS011;46975;51.898;11.444;2022-11-15T07:08:16;19.15;;;9.93;;
61091;SDS011;46975;51.898;11.444;2022-11-15T07:10:41;18.45;;;10.25;;
61091;SDS011;46975;51.898;11.444;2022-11-15T07:13:07;21.15;;;10.65;;
61091;SDS011;46975;51.898;11.444;2022-11-15T07:15:33;18.35;;;10.50;;
61091;SDS011;46975;51.898;11.444;2022-11-15T07:18:01;21.20;;;11.23;;
61091;SDS011;46975;51.898;11.444;2022-11-15T07:20:27;18.20;;;10.35;;
61091;SDS011;46975;51.898;11.444;2022-11-15T07:22:59;21.48;;;10.82;;
61091;SDS011;46975;51.898;11.444;2022-11-15T07:25:26;19.23;;;10.10;;
61091;SDS011;46975;51.898;11.444;2022-11-15T07:27:57;17.63;;;10.45;;
61091;SDS011;46975;51.898;11.444;2022-11-15T07:30:24;20.35;;;10.77;;
61091;SDS011;46975;51.898;11.444;2022-11-15T07:32:55;22.50;;;10.73;;
61091;SDS011;46975;51.898;11.444;2022-11-15T07:35:21;21.52;;;10.35;;
61091;SDS011;46975;51.898;11.444;2022-11-15T07:38:05;22.38;;;10.25;;
61091;SDS011;46975;51.898;11.444;2022-11-15T07:40:31;16.83;;;10.73;;
61091;SDS011;46975;51.898;11.444;2022-11-15T07:43:00;22.73;;;10.75;;
61091;SDS011;46975;51.898;11.444;2022-11-15T07:45:27;17.77;;;9.93;;
61091;SDS011;46975;51.898;11.444;2022-11-15T07:47:52;19.98;;;10.40;;
61091;SDS011;46975;51.898;11.444;2022-11-15T07:50:18;17.20;;;10.50;;
61091;SDS011;46975;51.898;11.444;2022-11-15T07:52:44;19.80;;;10.02;;
61091;SDS011;46975;51.898;11.444;2022-11-15T07:55:10;21.63;;;11.43;;
61091;SDS011;46975;51.898;11.444;2022-11-15T07:57:36;18.00;;;9.55;;
61091;SDS011;46975;51.898;11.444;2022-11-15T08:00:03;17.77;;;11.45;;
61091;SDS011;46975;51.898;11.444;2022-11-15T08:02:30;21.27;;;10.88;;
61091;SDS011;46975;51.898;11.444;2022-11-15T08:04:55;20.95;;;10.95;;
61091;SDS011;46975;51.898;11.444;2022-11-15T08:07:21;22.40;;;12.60;;
61091;SDS011;46975;51.898;11.444;2022-11-15T08:09:47;20.70;;;12.40;;
61091;SDS011;46975;51.898;11.444;2022-11-15T08:12:12;27.92;;;12.65;;
61091;SDS011;46975;51.898;11.444;2022-11-15T08:14:38;23.95;;;11.75;;
61091;SDS011;46975;51.898;11.444;2022-11-15T08:17:04;19.40;;;10.80;;
61091;SDS011;46975;51.898;11.444;2022-11-15T08:19:30;18.40;;;9.80;;
61091;SDS011;46975;51.898;11.444;2022-11-15T08:21:55;19.33;;;9.40;;
61091;SDS011;46975;51.898;11.444;2022-11-15T08:24:21;19.52;;;9.48;;
61091;SDS011;46975;51.898;11.444;2022-11-15T08:26:47;12.32;;;7.75;;
61091;SDS011;46975;51.898;11.444;2022-11-15T08:29:13;15.07;;;9.52;;
61091;SDS011;46975;51.898;11.444;2022-11-15T08:31:38;13.20;;;8.48;;
61091;SDS011;46975;51.898;11.444;2022-11-15T08:34:04;13.65;;;7.85;;
61091;SDS011;46975;51.898;11.444;2022-11-15T08:36:31;16.33;;;9.85;;
61091;SDS011;46975;51.898;11.444;2022-11-15T08:38:57;17.92;;;8.43;;
61091;SDS011;46975;51.898;11.444;2022-11-15T08:41:26;15.13;;;8.73;;
61091;SDS011;46975;51.898;11.444;2022-11-15T08:44:00;13.30;;;8.00;;
61091;SDS011;46975;51.898;11.444;2022-11-15T08:46:25;19.50;;;9.85;;
61091;SDS011;46975;51.898;11.444;2022-11-15T08:48:51;14.55;;;9.10;;
61091;SDS011;46975;51.898;11.444;2022-11-15T08:51:17;13.23;;;7.97;;
61091;SDS011;46975;51.898;11.444;2022-11-15T08:53:42;20.85;;;9.35;;
61091;SDS011;46975;51.898;11.444;2022-11-15T08:56:08;15.50;;;8.63;;
61091;SDS011;46975;51.898;11.444;2022-11-15T08:58:35;18.58;;;9.98;;
61091;SDS011;46975;51.898;11.444;2022-11-15T09:01:02;17.00;;;9.13;;
61091;SDS011;46975;51.898;11.444;2022-11-15T09:03:28;16.77;;;9.23;;
61091;SDS011;46975;51.898;11.444;2022-11-15T09:05:58;14.20;;;8.32;;
61091;SDS011;46975;51.898;11.444;2022-11-15T09:08:25;15.50;;;8.52;;
61091;SDS011;46975;51.898;11.444;2022-11-15T09:10:55;14.60;;;8.73;;
61091;SDS011;46975;51.898;11.444;2022-11-15T09:13:20;14.52;;;7.95;;
61091;SDS011;46975;51.898;11.444;2022-11-15T09:15:46;15.80;;;8.13;;
61091;SDS011;46975;51.898;11.444;2022-11-15T09:18:12;14.15;;;8.52;;
61091;SDS011;46975;51.898;11.444;2022-11-15T09:20:38;15.63;;;9.38;;
61091;SDS011;46975;51.898;11.444;2022-11-15T09:23:04;13.30;;;8.85;;
61091;SDS011;46975;51.898;11.444;2022-11-15T09:25:30;14.80;;;9.25;;
61091;SDS011;46975;51.898;11.444;2022-11-15T09:27:57;14.82;;;9.75;;
61091;SDS011;46975;51.898;11.444;2022-11-15T09:30:23;15.93;;;9.20;;
61091;SDS011;46975;51.898;11.444;2022-11-15T09:32:50;23.27;;;9.00;;
61091;SDS011;46975;51.898;11.444;2022-11-15T09:35:15;13.10;;;8.10;;
61091;SDS011;46975;51.898;11.444;2022-11-15T09:37:42;14.75;;;8.60;;
61091;SDS011;46975;51.898;11.444;2022-11-15T09:40:11;13.48;;;8.45;;
61091;SDS011;46975;51.898;11.444;2022-11-15T09:45:18;13.73;;;7.13;;
61091;SDS011;46975;51.898;11.444;2022-11-15T09:50:50;13.27;;;8.10;;
61091;SDS011;46975;51.898;11.444;2022-11-15T09:56:13;14.25;;;8.70;;
61091;SDS011;46975;51.898;11.444;2022-11-15T10:01:30;11.27;;;7.15;;
61091;SDS011;46975;51.898;11.444;2022-11-15T10:04:25;12.63;;;8.00;;
61091;SDS011;46975;51.898;11.444;2022-11-15T10:07:01;13.93;;;7.97;;
61091;SDS011;46975;51.898;11.444;2022-11-15T10:09:36;10.55;;;7.05;;
61091;SDS011;46975;51.898;11.444;2022-11-15T10:12:13;14.63;;;7.65;;
61091;SDS011;46975;51.898;11.444;2022-11-15T10:14:40;12.20;;;7.13;;
61091;SDS011;46975;51.898;11.444;2022-11-15T10:27:28;10.18;;;7.15;;
61091;SDS011;46975;51.898;11.444;2022-11-15T10:29:54;10.70;;;7.32;;
61091;SDS011;46975;51.898;11.444;2022-11-15T10:32:20;9.63;;;5.75;;
61091;SDS011;46975;51.898;11.444;2022-11-15T10:34:47;13.85;;;6.57;;
61091;SDS011;46975;51.898;11.444;2022-11-15T10:37:14;9.07;;;5.65;;
61091;SDS011;46975;51.898;11.444;2022-11-15T10:43:14;10.38;;;5.63;;
61091;SDS011;46975;51.898;11.444;2022-11-15T10:45:40;11.60;;;7.20;;
61091;SDS011;46975;51.898;11.444;2022-11-15T10:50:42;11.88;;;7.78;;
61091;SDS011;46975;51.898;11.444;2022-11-15T10:55:46;10.85;;;7.10;;
61091;SDS011;46975;51.898;11.444;2022-11-15T11:00:47;13.25;;;7.28;;
61091;SDS011;46975;51.898;11.444;2022-11-15T11:08:39;13.20;;;7.43;;
61091;SDS011;46975;51.898;11.444;2022-11-15T11:11:06;12.68;;;7.30;;
61091;SDS011;46975;51.898;11.444;2022-11-15T11:30:14;11.40;;;6.53;;
61091;SDS011;46975;51.898;11.444;2022-11-15T11:41:06;9.90;;;6.50;;
61091;SDS011;46975;51.898;11.444;2022-11-15T11:51:54;11.90;;;7.05;;
61091;SDS011;46975;51.898;11.444;2022-11-15T12:00:23;9.20;;;5.43;;
61091;SDS011;46975;51.898;11.444;2022-11-15T12:03:03;7.13;;;5.28;;
61091;SDS011;46975;51.898;11.444;2022-11-15T12:06:46;12.20;;;6.97;;
61091;SDS011;46975;51.898;11.444;2022-11-15T12:09:02;5.78;;;4.28;;
61091;SDS011;46975;51.898;11.444;2022-11-15T12:16:58;9.95;;;4.55;;
61091;SDS011;46975;51.898;11.444;2022-11-15T12:19:23;8.13;;;4.53;;
61091;SDS011;46975;51.898;11.444;2022-11-15T12:22:10;6.25;;;4.50;;
61091;SDS011;46975;51.898;11.444;2022-11-15T12:25:06;4.65;;;4.10;;
61091;SDS011;46975;51.898;11.444;2022-11-15T12:27:44;6.88;;;4.40;;
61091;SDS011;46975;51.898;11.444;2022-11-15T12:30:17;4.95;;;3.78;;
61091;SDS011;46975;51.898;11.444;2022-11-15T12:32:50;7.00;;;3.92;;
61091;SDS011;46975;51.898;11.444;2022-11-15T12:38:02;9.23;;;5.00;;
61091;SDS011;46975;51.898;11.444;2022-11-15T12:40:32;8.57;;;4.63;;
61091;SDS011;46975;51.898;11.444;2022-11-15T12:43:10;7.40;;;3.78;;
61091;SDS011;46975;51.898;11.444;2022-11-15T12:46:02;7.82;;;4.90;;
61091;SDS011;46975;51.898;11.444;2022-11-15T12:51:11;6.40;;;3.47;;
61091;SDS011;46975;51.898;11.444;2022-11-15T12:53:36;6.05;;;3.88;;
61091;SDS011;46975;51.898;11.444;2022-11-15T12:58:51;5.70;;;4.63;;
61091;SDS011;46975;51.898;11.444;2022-11-15T13:06:44;5.10;;;3.45;;
61091;SDS011;46975;51.898;11.444;2022-11-15T13:15:00;6.68;;;3.92;;
61091;SDS011;46975;51.898;11.444;2022-11-15T13:17:38;6.10;;;4.40;;
61091;SDS011;46975;51.898;11.444;2022-11-15T13:22:40;7.32;;;4.95;;
61091;SDS011;46975;51.898;11.444;2022-11-15T13:30:48;4.50;;;3.92;;
61091;SDS011;46975;51.898;11.444;2022-11-15T13:33:35;5.85;;;4.30;;
61091;SDS011;46975;51.898;11.444;2022-11-15T13:36:05;6.18;;;4.63;;
61091;SDS011;46975;51.898;11.444;2022-11-15T13:38:38;9.43;;;4.88;;
61091;SDS011;46975;51.898;11.444;2022-11-15T13:41:19;8.10;;;4.72;;
61091;SDS011;46975;51.898;11.444;2022-11-15T13:43:48;5.22;;;4.05;;
61091;SDS011;46975;51.898;11.444;2022-11-15T13:46:18;4.90;;;4.40;;
61091;SDS011;46975;51.898;11.444;2022-11-15T13:48:46;8.43;;;4.65;;
61091;SDS011;46975;51.898;11.444;2022-11-15T13:54:34;7.63;;;4.60;;
61091;SDS011;46975;51.898;11.444;2022-11-15T13:59:44;5.60;;;4.20;;
61091;SDS011;46975;51.898;11.444;2022-11-15T14:02:18;7.63;;;4.70;;
61091;SDS011;46975;51.898;11.444;2022-11-15T14:07:18;8.23;;;4.97;;
61091;SDS011;46975;51.898;11.444;2022-11-15T14:09:46;8.00;;;4.32;;
61091;SDS011;46975;51.898;11.444;2022-11-15T14:12:32;6.50;;;4.57;;
61091;SDS011;46975;51.898;11.444;2022-11-15T14:15:00;7.78;;;4.38;;
61091;SDS011;46975;51.898;11.444;2022-11-15T14:17:44;12.65;;;4.35;;
61091;SDS011;46975;51.898;11.444;2022-11-15T14:23:18;7.43;;;4.80;;
61091;SDS011;46975;51.898;11.444;2022-11-15T14:25:54;6.80;;;4.63;;
61091;SDS011;46975;51.898;11.444;2022-11-15T14:30:53;7.05;;;4.57;;
61091;SDS011;46975;51.898;11.444;2022-11-15T14:35:57;7.18;;;4.80;;
61091;SDS011;46975;51.898;11.444;2022-11-15T14:38:27;7.30;;;4.45;;
61091;SDS011;46975;51.898;11.444;2022-11-15T14:40:53;11.60;;;5.00;;
61091;SDS011;46975;51.898;11.444;2022-11-15T14:43:20;11.25;;;5.22;;
61091;SDS011;46975;51.898;11.444;2022-11-15T14:45:46;8.07;;;4.57;;
61091;SDS011;46975;51.898;11.444;2022-11-15T14:48:12;7.68;;;5.22;;
61091;SDS011;46975;51.898;11.444;2022-11-15T14:50:38;9.23;;;4.95;;
61091;SDS011;46975;51.898;11.444;2022-11-15T14:53:04;9.13;;;5.22;;
61091;SDS011;46975;51.898;11.444;2022-11-15T14:55:33;6.75;;;5.20;;
61091;SDS011;46975;51.898;11.444;2022-11-15T14:58:04;5.88;;;4.57;;
61091;SDS011;46975;51.898;11.444;2022-11-15T15:00:33;9.45;;;4.70;;
61091;SDS011;46975;51.898;11.444;2022-11-15T15:03:00;6.05;;;5.00;;
61091;SDS011;46975;51.898;11.444;2022-11-15T15:05:31;5.57;;;5.00;;
61091;SDS011;46975;51.898;11.444;2022-11-15T15:08:00;6.55;;;4.32;;
61091;SDS011;46975;51.898;11.444;2022-11-15T15:10:31;6.45;;;4.32;;
61091;SDS011;46975;51.898;11.444;2022-11-15T15:13:08;7.22;;;4.53;;
61091;SDS011;46975;51.898;11.444;2022-11-15T15:15:55;7.28;;;4.32;;
61091;SDS011;46975;51.898;11.444;2022-11-15T15:18:20;11.50;;;4.35;;
61091;SDS011;46975;51.898;11.444;2022-11-15T15:20:47;7.15;;;4.82;;
61091;SDS011;46975;51.898;11.444;2022-11-15T15:23:19;6.57;;;4.68;;
61091;SDS011;46975;51.898;11.444;2022-11-15T15:25:46;5.43;;;4.03;;
61091;SDS011;46975;51.898;11.444;2022-11-15T15:28:13;7.05;;;4.00;;
61091;SDS011;46975;51.898;11.444;2022-11-15T15:30:39;8.07;;;5.00;;
61091;SDS011;46975;51.898;11.444;2022-11-15T15:33:05;6.50;;;4.25;;
61091;SDS011;46975;51.898;11.444;2022-11-15T15:35:32;10.70;;;5.90;;
61091;SDS011;46975;51.898;11.444;2022-11-15T15:37:59;6.85;;;4.45;;
61091;SDS011;46975;51.898;11.444;2022-11-15T15:40:26;6.97;;;4.68;;
61091;SDS011;46975;51.898;11.444;2022-11-15T15:42:54;10.70;;;7.18;;
61091;SDS011;46975;51.898;11.444;2022-11-15T15:45:19;10.60;;;4.45;;
61091;SDS011;46975;51.898;11.444;2022-11-15T15:47:45;8.20;;;4.85;;
61091;SDS011;46975;51.898;11.444;2022-11-15T15:50:17;8.70;;;5.32;;
61091;SDS011;46975;51.898;11.444;2022-11-15T15:52:49;8.85;;;5.20;;
61091;SDS011;46975;51.898;11.444;2022-11-15T15:55:19;9.52;;;5.28;;
61091;SDS011;46975;51.898;11.444;2022-11-15T15:57:45;9.80;;;5.47;;
61091;SDS011;46975;51.898;11.444;2022-11-15T16:00:12;8.15;;;5.18;;
61091;SDS011;46975;51.898;11.444;2022-11-15T16:02:38;8.00;;;5.35;;
61091;SDS011;46975;51.898;11.444;2022-11-15T16:05:05;12.18;;;5.28;;
61091;SDS011;46975;51.898;11.444;2022-11-15T16:07:31;8.48;;;5.03;;
61091;SDS011;46975;51.898;11.444;2022-11-15T16:09:57;7.65;;;5.57;;
61091;SDS011;46975;51.898;11.444;2022-11-15T16:12:32;7.20;;;5.38;;
61091;SDS011;46975;51.898;11.444;2022-11-15T16:14:59;10.05;;;5.97;;
61091;SDS011;46975;51.898;11.444;2022-11-15T16:17:29;7.07;;;5.60;;
61091;SDS011;46975;51.898;11.444;2022-11-15T16:20:00;8.60;;;5.80;;
61091;SDS011;46975;51.898;11.444;2022-11-15T16:22:26;9.63;;;5.80;;
61091;SDS011;46975;51.898;11.444;2022-11-15T16:24:54;9.68;;;6.25;;
61091;SDS011;46975;51.898;11.444;2022-11-15T16:27:20;9.27;;;6.03;;
61091;SDS011;46975;51.898;11.444;2022-11-15T16:29:46;10.02;;;6.03;;
61091;SDS011;46975;51.898;11.444;2022-11-15T16:32:13;7.38;;;6.15;;
61091;SDS011;46975;51.898;11.444;2022-11-15T16:34:39;9.15;;;6.40;;
61091;SDS011;46975;51.898;11.444;2022-11-15T16:37:05;13.38;;;6.88;;
61091;SDS011;46975;51.898;11.444;2022-11-15T16:39:44;11.75;;;6.13;;
61091;SDS011;46975;51.898;11.444;2022-11-15T16:42:10;12.60;;;7.30;;
61091;SDS011;46975;51.898;11.444;2022-11-15T16:44:35;12.40;;;7.50;;
61091;SDS011;46975;51.898;11.444;2022-11-15T16:47:01;10.65;;;6.68;;
61091;SDS011;46975;51.898;11.444;2022-11-15T16:49:27;14.63;;;7.28;;
61091;SDS011;46975;51.898;11.444;2022-11-15T16:51:52;10.77;;;7.43;;
61091;SDS011;46975;51.898;11.444;2022-11-15T16:54:18;13.45;;;7.13;;
61091;SDS011;46975;51.898;11.444;2022-11-15T16:56:44;12.63;;;7.05;;
61091;SDS011;46975;51.898;11.444;2022-11-15T16:59:13;9.75;;;6.78;;
61091;SDS011;46975;51.898;11.444;2022-11-15T17:01:42;12.15;;;7.88;;
61091;SDS011;46975;51.898;11.444;2022-11-15T17:04:15;11.10;;;7.93;;
61091;SDS011;46975;51.898;11.444;2022-11-15T17:06:42;9.95;;;6.57;;
61091;SDS011;46975;51.898;11.444;2022-11-15T17:09:10;8.83;;;6.67;;
61091;SDS011;46975;51.898;11.444;2022-11-15T17:11:39;10.73;;;7.20;;
61091;SDS011;46975;51.898;11.444;2022-11-15T17:14:05;9.93;;;5.85;;